sensor_id;sensor_type;location;lat;lon;timestamp;P1;durP1;ratioP1;P2;durP2;ratioP2
56321;SDS011;42227;6.376;-10.782;2023-08-24T00:00:25;12.80;;;6.10;;
56321;SDS011;42227;6.376;-10.782;2023-08-24T00:02:54;13.43;;;6.93;;
56321;SDS011;42227;6.376;-10.782;2023-08-24T00:05:22;10.68;;;5.03;;
56321;SDS011;42227;6.376;-10.782;2023-08-24T00:07:51;18.30;;;6.80;;
56321;SDS011;42227;6.376;-10.782;2023-08-24T00:10:19;12.77;;;5.57;;
56321;SDS011;42227;6.376;-10.782;2023-08-24T00:12:47;13.05;;;5.90;;
56321;SDS011;42227;6.376;-10.782;2023-08-24T00:15:16;13.70;;;6.72;;
56321;SDS011;42227;6.376;-10.782;2023-08-24T00:17:44;17.42;;;6.68;;
56321;SDS011;42227;6.376;-10.782;2023-08-24T00:20:13;10.82;;;7.03;;
56321;SDS011;42227;6.376;-10.782;2023-08-24T00:22:41;13.40;;;7.32;;
56321;SDS011;42227;6.376;-10.782;2023-08-24T00:25:10;15.27;;;6.50;;
56321;SDS011;42227;6.376;-10.782;2023-08-24T00:27:38;12.57;;;7.03;;
56321;SDS011;42227;6.376;-10.782;2023-08-24T00:30:07;17.90;;;7.80;;
56321;SDS011;42227;6.376;-10.782;2023-08-24T00:32:36;18.98;;;6.57;;
56321;SDS011;42227;6.376;-10.782;2023-08-24T00:35:05;22.65;;;7.88;;
56321;SDS011;42227;6.376;-10.782;2023-08-24T00:37:36;13.70;;;6.45;;
56321;SDS011;42227;6.376;-10.782;2023-08-24T00:40:05;10.80;;;6.40;;
56321;SDS011;42227;6.376;-10.782;2023-08-24T00:42:38;11.20;;;7.90;;
56321;SDS011;42227;6.376;-10.782;2023-08-24T00:45:07;17.92;;;7.40;;
56321;SDS011;42227;6.376;-10.782;2023-08-24T00:47:40;11.02;;;5.47;;
56321;SDS011;42227;6.376;-10.782;2023-08-24T00:50:14;22.05;;;8.27;;
56321;SDS011;42227;6.376;-10.782;2023-08-24T00:52:44;29.48;;;9.40;;
56321;SDS011;42227;6.376;-10.782;2023-08-24T00:55:16;12.60;;;8.60;;
56321;SDS011;42227;6.376;-10.782;2023-08-24T00:57:44;21.73;;;9.38;;
56321;SDS011;42227;6.376;-10.782;2023-08-24T01:00:13;14.30;;;9.60;;
56321;SDS011;42227;6.376;-10.782;2023-08-24T01:02:42;20.15;;;10.27;;
56321;SDS011;42227;6.376;-10.782;2023-08-24T01:05:11;18.60;;;9.68;;
56321;SDS011;42227;6.376;-10.782;2023-08-24T01:07:39;15.40;;;9.57;;
56321;SDS011;42227;6.376;-10.782;2023-08-24T01:10:09;14.07;;;9.23;;
56321;SDS011;42227;6.376;-10.782;2023-08-24T01:18:37;12.68;;;8.20;;
56321;SDS011;42227;6.376;-10.782;2023-08-24T01:21:07;15.20;;;7.78;;
56321;SDS011;42227;6.376;-10.782;2023-08-24T01:26:14;15.57;;;6.90;;
56321;SDS011;42227;6.376;-10.782;2023-08-24T01:28:46;13.25;;;6.20;;
56321;SDS011;42227;6.376;-10.782;2023-08-24T01:31:15;12.25;;;5.45;;
56321;SDS011;42227;6.376;-10.782;2023-08-24T01:33:47;12.07;;;6.22;;
56321;SDS011;42227;6.376;-10.782;2023-08-24T01:36:16;7.70;;;4.88;;
56321;SDS011;42227;6.376;-10.782;2023-08-24T01:38:52;9.48;;;5.75;;
56321;SDS011;42227;6.376;-10.782;2023-08-24T01:41:30;19.30;;;6.00;;
56321;SDS011;42227;6.376;-10.782;2023-08-24T01:44:03;14.38;;;6.88;;
56321;SDS011;42227;6.376;-10.782;2023-08-24T01:46:33;11.88;;;6.25;;
56321;SDS011;42227;6.376;-10.782;2023-08-24T01:49:04;14.25;;;7.10;;
56321;SDS011;42227;6.376;-10.782;2023-08-24T01:51:34;14.80;;;7.00;;
56321;SDS011;42227;6.376;-10.782;2023-08-24T01:54:05;12.25;;;7.00;;
56321;SDS011;42227;6.376;-10.782;2023-08-24T01:56:36;11.98;;;7.18;;
56321;SDS011;42227;6.376;-10.782;2023-08-24T01:59:04;10.82;;;6.15;;
56321;SDS011;42227;6.376;-10.782;2023-08-24T02:01:33;18.27;;;7.22;;
56321;SDS011;42227;6.376;-10.782;2023-08-24T02:04:02;12.13;;;6.57;;
56321;SDS011;42227;6.376;-10.782;2023-08-24T02:06:31;9.75;;;6.22;;
56321;SDS011;42227;6.376;-10.782;2023-08-24T02:08:59;12.02;;;6.65;;
56321;SDS011;42227;6.376;-10.782;2023-08-24T02:11:28;10.75;;;5.60;;
56321;SDS011;42227;6.376;-10.782;2023-08-24T02:13:57;23.08;;;6.47;;
56321;SDS011;42227;6.376;-10.782;2023-08-24T02:16:26;15.07;;;5.95;;
56321;SDS011;42227;6.376;-10.782;2023-08-24T02:18:54;9.82;;;6.20;;
56321;SDS011;42227;6.376;-10.782;2023-08-24T02:21:23;19.38;;;6.43;;
56321;SDS011;42227;6.376;-10.782;2023-08-24T02:23:51;13.00;;;5.50;;
56321;SDS011;42227;6.376;-10.782;2023-08-24T02:26:20;11.55;;;5.38;;
56321;SDS011;42227;6.376;-10.782;2023-08-24T02:28:48;9.30;;;5.32;;
56321;SDS011;42227;6.376;-10.782;2023-08-24T02:31:17;10.88;;;6.05;;
56321;SDS011;42227;6.376;-10.782;2023-08-24T02:33:45;10.50;;;5.68;;
56321;SDS011;42227;6.376;-10.782;2023-08-24T02:36:14;14.13;;;6.65;;
56321;SDS011;42227;6.376;-10.782;2023-08-24T02:38:42;14.75;;;7.10;;
56321;SDS011;42227;6.376;-10.782;2023-08-24T02:41:11;21.92;;;9.15;;
56321;SDS011;42227;6.376;-10.782;2023-08-24T02:43:40;13.63;;;8.55;;
56321;SDS011;42227;6.376;-10.782;2023-08-24T02:46:12;20.10;;;9.38;;
56321;SDS011;42227;6.376;-10.782;2023-08-24T02:48:40;16.67;;;7.72;;
56321;SDS011;42227;6.376;-10.782;2023-08-24T02:51:09;23.02;;;8.73;;
56321;SDS011;42227;6.376;-10.782;2023-08-24T02:53:38;14.23;;;7.32;;
56321;SDS011;42227;6.376;-10.782;2023-08-24T02:56:07;13.60;;;8.05;;
56321;SDS011;42227;6.376;-10.782;2023-08-24T02:58:35;17.88;;;7.65;;
56321;SDS011;42227;6.376;-10.782;2023-08-24T03:01:07;23.60;;;8.57;;
56321;SDS011;42227;6.376;-10.782;2023-08-24T03:03:36;17.27;;;9.23;;
56321;SDS011;42227;6.376;-10.782;2023-08-24T03:06:05;18.80;;;9.15;;
56321;SDS011;42227;6.376;-10.782;2023-08-24T03:08:36;24.20;;;9.10;;
56321;SDS011;42227;6.376;-10.782;2023-08-24T03:11:05;18.90;;;10.18;;
56321;SDS011;42227;6.376;-10.782;2023-08-24T03:13:35;20.98;;;10.98;;
56321;SDS011;42227;6.376;-10.782;2023-08-24T03:16:06;22.98;;;10.18;;
56321;SDS011;42227;6.376;-10.782;2023-08-24T03:18:35;15.75;;;9.32;;
56321;SDS011;42227;6.376;-10.782;2023-08-24T03:21:04;24.52;;;10.70;;
56321;SDS011;42227;6.376;-10.782;2023-08-24T03:23:34;11.10;;;7.88;;
56321;SDS011;42227;6.376;-10.782;2023-08-24T03:26:02;18.40;;;10.57;;
56321;SDS011;42227;6.376;-10.782;2023-08-24T03:28:32;13.23;;;7.93;;
56321;SDS011;42227;6.376;-10.782;2023-08-24T03:31:00;17.13;;;10.55;;
56321;SDS011;42227;6.376;-10.782;2023-08-24T03:33:29;24.23;;;9.15;;
56321;SDS011;42227;6.376;-10.782;2023-08-24T03:36:00;20.25;;;11.90;;
56321;SDS011;42227;6.376;-10.782;2023-08-24T03:38:30;23.10;;;11.45;;
56321;SDS011;42227;6.376;-10.782;2023-08-24T03:41:02;15.23;;;9.98;;
56321;SDS011;42227;6.376;-10.782;2023-08-24T03:43:31;18.67;;;9.18;;
56321;SDS011;42227;6.376;-10.782;2023-08-24T03:46:01;14.02;;;10.35;;
56321;SDS011;42227;6.376;-10.782;2023-08-24T03:48:29;21.15;;;11.35;;
56321;SDS011;42227;6.376;-10.782;2023-08-24T03:50:58;13.85;;;10.35;;
56321;SDS011;42227;6.376;-10.782;2023-08-24T03:53:28;24.60;;;11.60;;
56321;SDS011;42227;6.376;-10.782;2023-08-24T03:55:56;15.30;;;9.60;;
56321;SDS011;42227;6.376;-10.782;2023-08-24T03:58:25;21.65;;;9.20;;
56321;SDS011;42227;6.376;-10.782;2023-08-24T04:00:54;13.52;;;8.32;;
56321;SDS011;42227;6.376;-10.782;2023-08-24T04:03:24;19.63;;;8.82;;
56321;SDS011;42227;6.376;-10.782;2023-08-24T04:05:52;15.50;;;7.60;;
56321;SDS011;42227;6.376;-10.782;2023-08-24T04:08:21;14.45;;;7.55;;
56321;SDS011;42227;6.376;-10.782;2023-08-24T04:10:49;17.70;;;8.27;;
56321;SDS011;42227;6.376;-10.782;2023-08-24T04:13:18;13.02;;;7.50;;
56321;SDS011;42227;6.376;-10.782;2023-08-24T04:15:46;15.60;;;7.65;;
56321;SDS011;42227;6.376;-10.782;2023-08-24T04:18:16;16.60;;;7.55;;
56321;SDS011;42227;6.376;-10.782;2023-08-24T04:20:44;15.93;;;7.25;;
56321;SDS011;42227;6.376;-10.782;2023-08-24T04:23:13;12.73;;;7.25;;
56321;SDS011;42227;6.376;-10.782;2023-08-24T04:25:41;18.33;;;8.63;;
56321;SDS011;42227;6.376;-10.782;2023-08-24T04:28:09;16.85;;;8.65;;
56321;SDS011;42227;6.376;-10.782;2023-08-24T04:30:38;14.50;;;9.50;;
56321;SDS011;42227;6.376;-10.782;2023-08-24T04:33:06;17.52;;;9.25;;
56321;SDS011;42227;6.376;-10.782;2023-08-24T04:35:35;14.85;;;9.88;;
56321;SDS011;42227;6.376;-10.782;2023-08-24T04:38:03;18.27;;;10.05;;
56321;SDS011;42227;6.376;-10.782;2023-08-24T04:40:44;16.52;;;10.85;;
56321;SDS011;42227;6.376;-10.782;2023-08-24T04:43:20;20.73;;;11.35;;
56321;SDS011;42227;6.376;-10.782;2023-08-24T04:45:50;14.63;;;11.15;;
56321;SDS011;42227;6.376;-10.782;2023-08-24T04:48:20;17.85;;;12.30;;
56321;SDS011;42227;6.376;-10.782;2023-08-24T04:50:49;22.10;;;15.57;;
56321;SDS011;42227;6.376;-10.782;2023-08-24T04:53:19;17.88;;;13.77;;
56321;SDS011;42227;6.376;-10.782;2023-08-24T04:55:47;23.13;;;12.00;;
56321;SDS011;42227;6.376;-10.782;2023-08-24T04:58:16;24.20;;;18.52;;
56321;SDS011;42227;6.376;-10.782;2023-08-24T05:00:44;21.60;;;13.38;;
56321;SDS011;42227;6.376;-10.782;2023-08-24T05:03:13;17.60;;;9.52;;
56321;SDS011;42227;6.376;-10.782;2023-08-24T05:05:41;13.30;;;8.68;;
56321;SDS011;42227;6.376;-10.782;2023-08-24T05:08:10;16.25;;;8.05;;
56321;SDS011;42227;6.376;-10.782;2023-08-24T05:10:39;8.90;;;7.10;;
56321;SDS011;42227;6.376;-10.782;2023-08-24T05:13:08;10.65;;;6.82;;
56321;SDS011;42227;6.376;-10.782;2023-08-24T05:15:36;20.38;;;8.75;;
56321;SDS011;42227;6.376;-10.782;2023-08-24T05:18:04;16.15;;;8.02;;
56321;SDS011;42227;6.376;-10.782;2023-08-24T05:20:33;12.50;;;8.90;;
56321;SDS011;42227;6.376;-10.782;2023-08-24T05:23:01;17.15;;;9.15;;
56321;SDS011;42227;6.376;-10.782;2023-08-24T05:25:30;10.32;;;7.90;;
56321;SDS011;42227;6.376;-10.782;2023-08-24T05:27:58;13.82;;;8.32;;
56321;SDS011;42227;6.376;-10.782;2023-08-24T05:30:27;12.40;;;6.93;;
56321;SDS011;42227;6.376;-10.782;2023-08-24T05:32:55;16.48;;;8.10;;
56321;SDS011;42227;6.376;-10.782;2023-08-24T05:35:24;11.57;;;8.18;;
56321;SDS011;42227;6.376;-10.782;2023-08-24T05:37:52;15.63;;;9.80;;
56321;SDS011;42227;6.376;-10.782;2023-08-24T05:40:21;16.40;;;10.57;;
56321;SDS011;42227;6.376;-10.782;2023-08-24T05:42:49;13.85;;;11.48;;
56321;SDS011;42227;6.376;-10.782;2023-08-24T05:45:17;14.63;;;10.95;;
56321;SDS011;42227;6.376;-10.782;2023-08-24T05:47:46;21.83;;;12.48;;
56321;SDS011;42227;6.376;-10.782;2023-08-24T05:50:15;36.55;;;13.18;;
56321;SDS011;42227;6.376;-10.782;2023-08-24T05:52:44;17.80;;;12.80;;
56321;SDS011;42227;6.376;-10.782;2023-08-24T05:55:12;22.98;;;11.43;;
56321;SDS011;42227;6.376;-10.782;2023-08-24T05:57:41;16.08;;;11.23;;
56321;SDS011;42227;6.376;-10.782;2023-08-24T06:00:09;19.45;;;12.38;;
56321;SDS011;42227;6.376;-10.782;2023-08-24T06:02:38;18.88;;;10.77;;
56321;SDS011;42227;6.376;-10.782;2023-08-24T06:05:07;21.98;;;13.38;;
56321;SDS011;42227;6.376;-10.782;2023-08-24T06:07:36;15.07;;;12.95;;
56321;SDS011;42227;6.376;-10.782;2023-08-24T06:10:04;17.40;;;13.02;;
56321;SDS011;42227;6.376;-10.782;2023-08-24T06:12:33;16.50;;;12.98;;
56321;SDS011;42227;6.376;-10.782;2023-08-24T06:15:02;21.90;;;13.15;;
56321;SDS011;42227;6.376;-10.782;2023-08-24T06:17:31;20.15;;;13.30;;
56321;SDS011;42227;6.376;-10.782;2023-08-24T06:19:59;32.05;;;20.10;;
56321;SDS011;42227;6.376;-10.782;2023-08-24T06:22:28;26.38;;;20.08;;
56321;SDS011;42227;6.376;-10.782;2023-08-24T06:24:59;36.65;;;26.13;;
56321;SDS011;42227;6.376;-10.782;2023-08-24T06:27:27;40.60;;;30.08;;
56321;SDS011;42227;6.376;-10.782;2023-08-24T06:29:55;45.13;;;28.30;;
56321;SDS011;42227;6.376;-10.782;2023-08-24T06:32:24;32.08;;;25.38;;
56321;SDS011;42227;6.376;-10.782;2023-08-24T06:34:53;31.10;;;22.98;;
56321;SDS011;42227;6.376;-10.782;2023-08-24T06:37:21;27.75;;;20.00;;
56321;SDS011;42227;6.376;-10.782;2023-08-24T06:39:49;28.33;;;18.33;;
56321;SDS011;42227;6.376;-10.782;2023-08-24T06:42:18;22.23;;;13.38;;
56321;SDS011;42227;6.376;-10.782;2023-08-24T06:44:47;27.63;;;16.63;;
56321;SDS011;42227;6.376;-10.782;2023-08-24T06:47:15;27.02;;;17.38;;
56321;SDS011;42227;6.376;-10.782;2023-08-24T06:49:43;32.53;;;20.27;;
56321;SDS011;42227;6.376;-10.782;2023-08-24T06:52:12;30.83;;;20.75;;
56321;SDS011;42227;6.376;-10.782;2023-08-24T06:54:40;27.85;;;20.15;;
56321;SDS011;42227;6.376;-10.782;2023-08-24T06:57:09;26.15;;;18.80;;
56321;SDS011;42227;6.376;-10.782;2023-08-24T06:59:37;27.05;;;18.52;;
56321;SDS011;42227;6.376;-10.782;2023-08-24T07:02:05;25.42;;;17.80;;
56321;SDS011;42227;6.376;-10.782;2023-08-24T07:04:34;22.02;;;14.00;;
56321;SDS011;42227;6.376;-10.782;2023-08-24T07:07:02;23.63;;;13.55;;
56321;SDS011;42227;6.376;-10.782;2023-08-24T07:09:31;23.48;;;13.57;;
56321;SDS011;42227;6.376;-10.782;2023-08-24T07:11:59;20.70;;;13.27;;
56321;SDS011;42227;6.376;-10.782;2023-08-24T07:14:28;16.90;;;13.52;;
56321;SDS011;42227;6.376;-10.782;2023-08-24T07:16:56;11.85;;;9.18;;
56321;SDS011;42227;6.376;-10.782;2023-08-24T07:19:25;12.38;;;8.90;;
56321;SDS011;42227;6.376;-10.782;2023-08-24T07:21:53;14.80;;;10.73;;
56321;SDS011;42227;6.376;-10.782;2023-08-24T07:24:22;14.52;;;9.18;;
56321;SDS011;42227;6.376;-10.782;2023-08-24T07:27:10;20.33;;;9.48;;
56321;SDS011;42227;6.376;-10.782;2023-08-24T07:29:38;16.63;;;9.65;;
56321;SDS011;42227;6.376;-10.782;2023-08-24T07:32:07;14.98;;;10.73;;
56321;SDS011;42227;6.376;-10.782;2023-08-24T07:34:35;23.02;;;12.10;;
56321;SDS011;42227;6.376;-10.782;2023-08-24T07:37:04;17.75;;;10.02;;
56321;SDS011;42227;6.376;-10.782;2023-08-24T07:39:32;14.32;;;9.38;;
56321;SDS011;42227;6.376;-10.782;2023-08-24T07:42:01;11.32;;;7.68;;
56321;SDS011;42227;6.376;-10.782;2023-08-24T07:44:30;16.65;;;9.52;;
56321;SDS011;42227;6.376;-10.782;2023-08-24T07:46:58;17.38;;;8.27;;
56321;SDS011;42227;6.376;-10.782;2023-08-24T07:49:26;15.90;;;9.27;;
56321;SDS011;42227;6.376;-10.782;2023-08-24T07:51:55;15.90;;;9.23;;
56321;SDS011;42227;6.376;-10.782;2023-08-24T07:54:23;15.30;;;9.68;;
56321;SDS011;42227;6.376;-10.782;2023-08-24T07:56:52;15.52;;;9.15;;
56321;SDS011;42227;6.376;-10.782;2023-08-24T07:59:20;15.00;;;10.65;;
56321;SDS011;42227;6.376;-10.782;2023-08-24T08:01:50;15.05;;;9.02;;
56321;SDS011;42227;6.376;-10.782;2023-08-24T08:04:25;16.65;;;9.20;;
56321;SDS011;42227;6.376;-10.782;2023-08-24T08:06:56;11.13;;;8.70;;
56321;SDS011;42227;6.376;-10.782;2023-08-24T08:09:27;17.20;;;9.23;;
56321;SDS011;42227;6.376;-10.782;2023-08-24T08:11:57;13.77;;;8.63;;
56321;SDS011;42227;6.376;-10.782;2023-08-24T08:14:29;12.27;;;8.63;;
56321;SDS011;42227;6.376;-10.782;2023-08-24T08:16:57;13.65;;;7.85;;
56321;SDS011;42227;6.376;-10.782;2023-08-24T08:19:26;10.18;;;6.18;;
56321;SDS011;42227;6.376;-10.782;2023-08-24T08:21:54;14.30;;;6.93;;
56321;SDS011;42227;6.376;-10.782;2023-08-24T08:24:23;20.35;;;8.20;;
56321;SDS011;42227;6.376;-10.782;2023-08-24T08:26:52;8.90;;;5.50;;
56321;SDS011;42227;6.376;-10.782;2023-08-24T08:29:20;16.50;;;7.43;;
56321;SDS011;42227;6.376;-10.782;2023-08-24T08:31:49;15.65;;;7.25;;
56321;SDS011;42227;6.376;-10.782;2023-08-24T08:34:18;12.85;;;6.90;;
56321;SDS011;42227;6.376;-10.782;2023-08-24T08:36:46;8.95;;;6.75;;
56321;SDS011;42227;6.376;-10.782;2023-08-24T08:39:15;11.88;;;6.22;;
56321;SDS011;42227;6.376;-10.782;2023-08-24T08:41:43;16.10;;;7.05;;
56321;SDS011;42227;6.376;-10.782;2023-08-24T08:44:13;13.75;;;7.47;;
56321;SDS011;42227;6.376;-10.782;2023-08-24T08:46:43;11.27;;;7.88;;
56321;SDS011;42227;6.376;-10.782;2023-08-24T08:49:12;17.63;;;8.10;;
56321;SDS011;42227;6.376;-10.782;2023-08-24T08:51:43;15.30;;;8.88;;
56321;SDS011;42227;6.376;-10.782;2023-08-24T08:54:12;14.38;;;7.35;;
56321;SDS011;42227;6.376;-10.782;2023-08-24T08:56:42;13.18;;;8.57;;
56321;SDS011;42227;6.376;-10.782;2023-08-24T08:59:11;13.00;;;9.00;;
56321;SDS011;42227;6.376;-10.782;2023-08-24T09:01:43;18.48;;;10.00;;
56321;SDS011;42227;6.376;-10.782;2023-08-24T09:04:13;14.32;;;8.85;;
56321;SDS011;42227;6.376;-10.782;2023-08-24T09:06:42;24.33;;;11.18;;
56321;SDS011;42227;6.376;-10.782;2023-08-24T09:09:11;15.23;;;9.32;;
56321;SDS011;42227;6.376;-10.782;2023-08-24T09:11:39;26.67;;;17.30;;
56321;SDS011;42227;6.376;-10.782;2023-08-24T09:14:08;18.75;;;12.82;;
56321;SDS011;42227;6.376;-10.782;2023-08-24T09:16:36;23.80;;;11.63;;
56321;SDS011;42227;6.376;-10.782;2023-08-24T09:19:05;14.40;;;9.70;;
56321;SDS011;42227;6.376;-10.782;2023-08-24T09:21:36;21.75;;;11.05;;
56321;SDS011;42227;6.376;-10.782;2023-08-24T09:24:08;22.98;;;9.63;;
56321;SDS011;42227;6.376;-10.782;2023-08-24T09:26:38;12.38;;;10.25;;
56321;SDS011;42227;6.376;-10.782;2023-08-24T09:29:11;20.30;;;9.18;;
56321;SDS011;42227;6.376;-10.782;2023-08-24T09:31:40;15.25;;;10.38;;
56321;SDS011;42227;6.376;-10.782;2023-08-24T09:34:19;23.85;;;10.95;;
56321;SDS011;42227;6.376;-10.782;2023-08-24T09:36:51;26.83;;;12.57;;
56321;SDS011;42227;6.376;-10.782;2023-08-24T09:39:20;20.58;;;12.05;;
56321;SDS011;42227;6.376;-10.782;2023-08-24T09:41:50;14.65;;;10.32;;
56321;SDS011;42227;6.376;-10.782;2023-08-24T09:44:18;23.67;;;11.07;;
56321;SDS011;42227;6.376;-10.782;2023-08-24T09:46:47;23.23;;;10.57;;
56321;SDS011;42227;6.376;-10.782;2023-08-24T09:49:18;15.18;;;9.32;;
56321;SDS011;42227;6.376;-10.782;2023-08-24T09:51:47;18.17;;;12.00;;
56321;SDS011;42227;6.376;-10.782;2023-08-24T09:54:17;21.17;;;10.85;;
56321;SDS011;42227;6.376;-10.782;2023-08-24T09:56:50;28.00;;;7.88;;
56321;SDS011;42227;6.376;-10.782;2023-08-24T09:59:19;29.60;;;10.05;;
56321;SDS011;42227;6.376;-10.782;2023-08-24T10:01:50;25.30;;;8.27;;
56321;SDS011;42227;6.376;-10.782;2023-08-24T10:04:23;21.38;;;9.88;;
56321;SDS011;42227;6.376;-10.782;2023-08-24T10:06:55;18.08;;;8.75;;
56321;SDS011;42227;6.376;-10.782;2023-08-24T10:09:40;28.13;;;7.20;;
56321;SDS011;42227;6.376;-10.782;2023-08-24T10:12:20;15.93;;;6.95;;
56321;SDS011;42227;6.376;-10.782;2023-08-24T10:17:32;10.18;;;6.28;;
56321;SDS011;42227;6.376;-10.782;2023-08-24T10:20:01;12.27;;;6.43;;
56321;SDS011;42227;6.376;-10.782;2023-08-24T10:22:29;8.60;;;4.75;;
56321;SDS011;42227;6.376;-10.782;2023-08-24T10:25:00;14.00;;;6.03;;
56321;SDS011;42227;6.376;-10.782;2023-08-24T10:27:29;12.52;;;5.68;;
56321;SDS011;42227;6.376;-10.782;2023-08-24T10:29:58;13.13;;;6.07;;
56321;SDS011;42227;6.376;-10.782;2023-08-24T10:32:26;10.30;;;5.47;;
56321;SDS011;42227;6.376;-10.782;2023-08-24T10:34:56;12.52;;;4.25;;
56321;SDS011;42227;6.376;-10.782;2023-08-24T10:37:26;10.70;;;5.18;;
56321;SDS011;42227;6.376;-10.782;2023-08-24T10:39:55;9.20;;;5.32;;
56321;SDS011;42227;6.376;-10.782;2023-08-24T10:42:23;11.07;;;4.78;;
56321;SDS011;42227;6.376;-10.782;2023-08-24T10:44:52;11.43;;;4.45;;
56321;SDS011;42227;6.376;-10.782;2023-08-24T10:47:21;9.63;;;5.38;;
56321;SDS011;42227;6.376;-10.782;2023-08-24T10:54:52;5.78;;;4.03;;
56321;SDS011;42227;6.376;-10.782;2023-08-24T10:57:27;9.80;;;4.25;;
56321;SDS011;42227;6.376;-10.782;2023-08-24T11:00:04;6.97;;;4.38;;
56321;SDS011;42227;6.376;-10.782;2023-08-24T11:07:55;24.55;;;15.52;;
56321;SDS011;42227;6.376;-10.782;2023-08-24T11:10:24;7.00;;;4.60;;
56321;SDS011;42227;6.376;-10.782;2023-08-24T11:13:27;67.20;;;40.35;;
56321;SDS011;42227;6.376;-10.782;2023-08-24T11:15:49;42.53;;;25.42;;
56321;SDS011;42227;6.376;-10.782;2023-08-24T11:20:50;13.13;;;6.22;;
56321;SDS011;42227;6.376;-10.782;2023-08-24T11:23:29;15.38;;;6.65;;
56321;SDS011;42227;6.376;-10.782;2023-08-24T11:25:58;19.52;;;12.60;;
56321;SDS011;42227;6.376;-10.782;2023-08-24T11:28:28;41.65;;;15.60;;
56321;SDS011;42227;6.376;-10.782;2023-08-24T11:30:58;22.13;;;12.98;;
56321;SDS011;42227;6.376;-10.782;2023-08-24T11:33:30;22.77;;;7.75;;
56321;SDS011;42227;6.376;-10.782;2023-08-24T11:36:01;47.10;;;23.75;;
56321;SDS011;42227;6.376;-10.782;2023-08-24T11:38:35;36.15;;;18.30;;
56321;SDS011;42227;6.376;-10.782;2023-08-24T11:41:11;12.75;;;6.70;;
56321;SDS011;42227;6.376;-10.782;2023-08-24T11:43:41;22.17;;;9.82;;
56321;SDS011;42227;6.376;-10.782;2023-08-24T11:46:11;14.70;;;7.15;;
56321;SDS011;42227;6.376;-10.782;2023-08-24T11:48:40;9.90;;;6.35;;
56321;SDS011;42227;6.376;-10.782;2023-08-24T11:51:09;8.90;;;4.15;;
56321;SDS011;42227;6.376;-10.782;2023-08-24T11:53:42;7.97;;;4.53;;
56321;SDS011;42227;6.376;-10.782;2023-08-24T11:56:11;11.93;;;4.55;;
56321;SDS011;42227;6.376;-10.782;2023-08-24T11:58:40;10.80;;;5.82;;
56321;SDS011;42227;6.376;-10.782;2023-08-24T12:01:11;7.65;;;4.97;;
56321;SDS011;42227;6.376;-10.782;2023-08-24T12:03:40;26.02;;;5.85;;
56321;SDS011;42227;6.376;-10.782;2023-08-24T12:06:12;10.75;;;5.05;;
56321;SDS011;42227;6.376;-10.782;2023-08-24T12:08:45;7.93;;;5.80;;
56321;SDS011;42227;6.376;-10.782;2023-08-24T12:11:18;6.50;;;4.07;;
56321;SDS011;42227;6.376;-10.782;2023-08-24T12:13:48;12.43;;;5.88;;
56321;SDS011;42227;6.376;-10.782;2023-08-24T12:16:18;14.65;;;4.82;;
56321;SDS011;42227;6.376;-10.782;2023-08-24T12:18:50;7.40;;;4.85;;
56321;SDS011;42227;6.376;-10.782;2023-08-24T12:21:20;10.00;;;4.68;;
56321;SDS011;42227;6.376;-10.782;2023-08-24T12:24:05;11.10;;;4.20;;
56321;SDS011;42227;6.376;-10.782;2023-08-24T12:26:34;11.70;;;4.30;;
56321;SDS011;42227;6.376;-10.782;2023-08-24T12:29:07;9.50;;;4.75;;
56321;SDS011;42227;6.376;-10.782;2023-08-24T12:31:36;13.55;;;4.50;;
56321;SDS011;42227;6.376;-10.782;2023-08-24T12:34:10;10.20;;;3.55;;
56321;SDS011;42227;6.376;-10.782;2023-08-24T12:36:42;9.30;;;3.88;;
56321;SDS011;42227;6.376;-10.782;2023-08-24T12:39:12;9.63;;;4.45;;
56321;SDS011;42227;6.376;-10.782;2023-08-24T12:41:40;8.50;;;3.92;;
56321;SDS011;42227;6.376;-10.782;2023-08-24T12:44:09;15.50;;;3.72;;
56321;SDS011;42227;6.376;-10.782;2023-08-24T12:46:44;14.45;;;4.03;;
56321;SDS011;42227;6.376;-10.782;2023-08-24T12:49:13;19.73;;;5.18;;
56321;SDS011;42227;6.376;-10.782;2023-08-24T12:51:43;6.65;;;3.63;;
56321;SDS011;42227;6.376;-10.782;2023-08-24T12:54:12;6.45;;;3.75;;
56321;SDS011;42227;6.376;-10.782;2023-08-24T12:56:40;8.43;;;4.72;;
56321;SDS011;42227;6.376;-10.782;2023-08-24T12:59:09;11.20;;;4.53;;
56321;SDS011;42227;6.376;-10.782;2023-08-24T13:01:37;8.57;;;3.72;;
56321;SDS011;42227;6.376;-10.782;2023-08-24T13:04:06;14.73;;;4.25;;
56321;SDS011;42227;6.376;-10.782;2023-08-24T13:06:35;11.57;;;4.65;;
56321;SDS011;42227;6.376;-10.782;2023-08-24T13:09:03;10.63;;;5.40;;
56321;SDS011;42227;6.376;-10.782;2023-08-24T13:11:31;11.35;;;4.00;;
56321;SDS011;42227;6.376;-10.782;2023-08-24T13:14:00;9.98;;;4.82;;
56321;SDS011;42227;6.376;-10.782;2023-08-24T13:16:28;5.68;;;4.07;;
56321;SDS011;42227;6.376;-10.782;2023-08-24T13:18:57;7.47;;;4.40;;
56321;SDS011;42227;6.376;-10.782;2023-08-24T13:21:26;9.35;;;4.57;;
56321;SDS011;42227;6.376;-10.782;2023-08-24T13:23:54;7.75;;;4.68;;
56321;SDS011;42227;6.376;-10.782;2023-08-24T13:26:23;7.80;;;4.75;;
56321;SDS011;42227;6.376;-10.782;2023-08-24T13:28:51;11.32;;;6.07;;
56321;SDS011;42227;6.376;-10.782;2023-08-24T13:31:20;13.25;;;6.00;;
56321;SDS011;42227;6.376;-10.782;2023-08-24T13:33:48;17.48;;;5.10;;
56321;SDS011;42227;6.376;-10.782;2023-08-24T13:36:17;8.27;;;6.68;;
56321;SDS011;42227;6.376;-10.782;2023-08-24T13:38:45;18.67;;;14.45;;
56321;SDS011;42227;6.376;-10.782;2023-08-24T13:41:14;14.00;;;8.13;;
56321;SDS011;42227;6.376;-10.782;2023-08-24T13:43:42;22.27;;;15.32;;
56321;SDS011;42227;6.376;-10.782;2023-08-24T13:46:11;14.32;;;6.28;;
56321;SDS011;42227;6.376;-10.782;2023-08-24T13:48:39;9.23;;;5.68;;
56321;SDS011;42227;6.376;-10.782;2023-08-24T13:51:08;9.57;;;5.35;;
56321;SDS011;42227;6.376;-10.782;2023-08-24T13:53:36;11.23;;;5.45;;
56321;SDS011;42227;6.376;-10.782;2023-08-24T13:56:05;14.52;;;6.00;;
56321;SDS011;42227;6.376;-10.782;2023-08-24T13:58:34;14.10;;;6.00;;
56321;SDS011;42227;6.376;-10.782;2023-08-24T14:01:03;18.05;;;5.93;;
56321;SDS011;42227;6.376;-10.782;2023-08-24T14:03:31;9.27;;;5.00;;
56321;SDS011;42227;6.376;-10.782;2023-08-24T14:05:59;8.05;;;4.38;;
56321;SDS011;42227;6.376;-10.782;2023-08-24T14:08:28;9.85;;;5.20;;
56321;SDS011;42227;6.376;-10.782;2023-08-24T14:10:57;11.77;;;4.15;;
56321;SDS011;42227;6.376;-10.782;2023-08-24T14:13:25;5.82;;;3.70;;
56321;SDS011;42227;6.376;-10.782;2023-08-24T14:15:54;6.75;;;3.65;;
56321;SDS011;42227;6.376;-10.782;2023-08-24T14:18:23;7.97;;;4.38;;
56321;SDS011;42227;6.376;-10.782;2023-08-24T14:20:54;12.05;;;4.95;;
56321;SDS011;42227;6.376;-10.782;2023-08-24T14:23:22;10.75;;;4.20;;
56321;SDS011;42227;6.376;-10.782;2023-08-24T14:25:51;7.55;;;3.90;;
56321;SDS011;42227;6.376;-10.782;2023-08-24T14:28:20;8.63;;;3.88;;
56321;SDS011;42227;6.376;-10.782;2023-08-24T14:30:50;5.50;;;3.38;;
56321;SDS011;42227;6.376;-10.782;2023-08-24T14:33:18;9.82;;;5.63;;
56321;SDS011;42227;6.376;-10.782;2023-08-24T14:35:50;12.15;;;3.90;;
56321;SDS011;42227;6.376;-10.782;2023-08-24T14:38:19;8.70;;;4.90;;
56321;SDS011;42227;6.376;-10.782;2023-08-24T14:40:48;14.07;;;5.07;;
56321;SDS011;42227;6.376;-10.782;2023-08-24T14:43:16;7.68;;;4.43;;
56321;SDS011;42227;6.376;-10.782;2023-08-24T14:45:45;9.13;;;4.60;;
56321;SDS011;42227;6.376;-10.782;2023-08-24T14:48:14;5.72;;;3.53;;
56321;SDS011;42227;6.376;-10.782;2023-08-24T14:50:42;13.93;;;4.18;;
56321;SDS011;42227;6.376;-10.782;2023-08-24T14:53:11;12.95;;;4.47;;
56321;SDS011;42227;6.376;-10.782;2023-08-24T14:55:40;11.50;;;4.20;;
56321;SDS011;42227;6.376;-10.782;2023-08-24T14:58:09;12.80;;;4.93;;